Airfield :
LOGIN :

Register | Disclaimer

   EN    FR    IT 

 










Legend :    VFR   Marginal VFR   IFR   Intensive IFR   Very Intensive IFR
Visi :
Ceiling :
>= 8 km
>= 3000ft
5 to 8 km
1000 to 3000 ft
1500m to 5 km
500 to 1000 ft
800 to 1500m
200 to 500 ft
< 800m
< 200 ft
Symbols :   Thunderstorms  Fog  Heavy snow  Heavy precipitations  Wind > 20 kt
SIGMETs :     Misc.  Thunderstorms  Icing  Turbulence  Mountain Waves  Volcanic Ashes







- Airport Elevation : 3 ft
- IATA code : DHR


EHKD - Den Helder De Kooy

CURRENT METAR :
  • 221259Z AUTO 33015KT 280V020 9999 FEW018 SCT025 BKN036 14/09 Q1026 BLU 31015G25KT 9999 BKN020 TEMPO FEW015 SCT018CB BKN020

EXPIRED METARs :
  • 221255Z AUTO 33015KT 280V010 9999 SCT018 SCT028 BKN038 14/09 Q1026 WHT 31015G25KT 9999 BKN020 TEMPO FEW015 SCT018CB BKN020
  • 221249Z AUTO 32013KT 280V020 9999 FEW018 SCT021 OVC037 14/09 Q1026 WHT 31015G25KT 9999 BKN020 TEMPO FEW015 SCT018CB BKN020
  • 221240Z AUTO 31015KT 280V350 9999 FEW019 BKN032 BKN036 13/08 Q1026 BLU 31015G25KT 9999 BKN020 TEMPO FEW015 SCT018CB BKN020
  • 221225Z AUTO 32016KT 290V360 9999 SCT018 BKN022 BKN027 14/09 Q1026 WHT 31015G25KT 9999 BKN020 TEMPO FEW015 SCT018CB BKN020
  • 221155Z AUTO 32016KT 290V010 9999 SCT018 SCT026 BKN031 14/09 Q1026 WHT 31015G25KT 9999 BKN020 TEMPO FEW015 SCT018CB BKN020
  • 221139Z AUTO 32017KT 270V360 9999 FEW019 SCT025 15/09 Q1026 BLU 31015G25KT 9999 BKN020 TEMPO FEW015 SCT018CB BKN020
  • 221125Z AUTO 32015G26KT 280V360 9999 SCT020 SCT024 BKN028 15/08 Q1026 WHT 31015G25KT 9999 BKN020 TEMPO FEW015 SCT018CB BKN020
  • 221110Z AUTO 32016KT 280V020 9999 SCT020 15/09 Q1026 WHT 31015G25KT 9999 BKN020 TEMPO FEW015 SCT018CB BKN020
  • 221100Z AUTO 32016KT 280V360 9999 FEW017 SCT025 BKN035 15/09 Q1026 BLU 31015G25KT 9999 BKN020 TEMPO FEW015 SCT018CB BKN020
  • 221055Z AUTO 32014KT 270V360 9999 SCT017 BKN020 BKN026 14/09 Q1026 WHT 31015G25KT 9999 BKN020 TEMPO FEW015 SCT018CB BKN020
  • 221043Z AUTO 32014KT 270V360 9999 FEW019 SCT026 BKN029 13/09 Q1026 BLU 31015G25KT 9999 BKN020 TEMPO FEW015 SCT018CB BKN020
  • 221033Z AUTO 33014KT 290V020 9999 FEW017 SCT022 OVC043 14/09 Q1025 WHT 31015G25KT 9999 BKN020 TEMPO FEW015 SCT018CB BKN020
  • 221025Z AUTO 33016KT 290V020 9999 FEW019 BKN045 OVC050 15/09 Q1025 BLU 31015G25KT 9999 BKN020 TEMPO FEW015 SCT018CB BKN020

TAF TAF EHKD
Valid from the 22 at 09:00 until the 22 at 21:00 UTC


220809Z 2209/2221 32015G25KT 9999 BKN025
TEMPO 2209/2214 FEW015 SCT020CB BKN035
No reported NOTAMs for that airfield.



MET'MAP, your aeronautical weather chart ! - Copyright ORBIFLY December 2007 - Disclaimer

ORBIFLY MET'MAP TEAM :

Programming & Development : Alexandra Zaïnal
Concept & Development : Baudouin d'Aumeries
Co-Development & Prog : Marc-Olivier Méhu
Technical & hardware support : Manuel Goepfert

Contact : metmap@orbifly.com




SOURCES & CREDITS :

   NOAA